sensor_id;sensor_type;location;lat;lon;timestamp;P1;durP1;ratioP1;P2;durP2;ratioP2
5961;SDS011;3007;50.770;0.250;2022-09-13T00:01:40;2.58;;;1.23;;
5961;SDS011;3007;50.770;0.250;2022-09-13T00:04:07;3.00;;;1.40;;
5961;SDS011;3007;50.770;0.250;2022-09-13T00:06:34;3.65;;;1.40;;
5961;SDS011;3007;50.770;0.250;2022-09-13T00:09:01;5.00;;;1.60;;
5961;SDS011;3007;50.770;0.250;2022-09-13T00:11:30;3.13;;;1.30;;
5961;SDS011;3007;50.770;0.250;2022-09-13T00:13:59;2.40;;;1.35;;
5961;SDS011;3007;50.770;0.250;2022-09-13T00:16:27;2.08;;;1.33;;
5961;SDS011;3007;50.770;0.250;2022-09-13T00:18:54;3.58;;;1.60;;
5961;SDS011;3007;50.770;0.250;2022-09-13T00:21:22;4.10;;;1.67;;
5961;SDS011;3007;50.770;0.250;2022-09-13T00:23:50;3.78;;;1.50;;
5961;SDS011;3007;50.770;0.250;2022-09-13T00:26:19;3.65;;;1.50;;
5961;SDS011;3007;50.770;0.250;2022-09-13T00:28:49;1.52;;;1.23;;
5961;SDS011;3007;50.770;0.250;2022-09-13T00:31:17;2.05;;;1.48;;
5961;SDS011;3007;50.770;0.250;2022-09-13T00:33:44;2.38;;;1.80;;
5961;SDS011;3007;50.770;0.250;2022-09-13T00:36:12;2.03;;;1.33;;
5961;SDS011;3007;50.770;0.250;2022-09-13T00:38:40;1.45;;;1.23;;
5961;SDS011;3007;50.770;0.250;2022-09-13T00:41:10;2.67;;;1.67;;
5961;SDS011;3007;50.770;0.250;2022-09-13T00:43:40;1.80;;;1.45;;
5961;SDS011;3007;50.770;0.250;2022-09-13T00:46:16;2.75;;;1.40;;
5961;SDS011;3007;50.770;0.250;2022-09-13T00:48:55;1.85;;;1.30;;
5961;SDS011;3007;50.770;0.250;2022-09-13T00:51:26;2.33;;;1.38;;
5961;SDS011;3007;50.770;0.250;2022-09-13T00:53:54;1.65;;;1.35;;
5961;SDS011;3007;50.770;0.250;2022-09-13T00:56:24;2.15;;;1.88;;
5961;SDS011;3007;50.770;0.250;2022-09-13T00:58:55;3.25;;;1.70;;
5961;SDS011;3007;50.770;0.250;2022-09-13T01:01:28;1.52;;;1.30;;
5961;SDS011;3007;50.770;0.250;2022-09-13T01:04:00;1.67;;;1.10;;
5961;SDS011;3007;50.770;0.250;2022-09-13T01:06:28;1.52;;;1.20;;
5961;SDS011;3007;50.770;0.250;2022-09-13T01:08:59;1.60;;;1.13;;
5961;SDS011;3007;50.770;0.250;2022-09-13T01:11:30;1.55;;;1.10;;
5961;SDS011;3007;50.770;0.250;2022-09-13T01:14:03;2.72;;;1.58;;
5961;SDS011;3007;50.770;0.250;2022-09-13T01:16:33;1.30;;;1.05;;
5961;SDS011;3007;50.770;0.250;2022-09-13T01:19:03;4.10;;;1.27;;
5961;SDS011;3007;50.770;0.250;2022-09-13T01:21:56;1.10;;;1.00;;
5961;SDS011;3007;50.770;0.250;2022-09-13T01:24:59;2.03;;;1.10;;
5961;SDS011;3007;50.770;0.250;2022-09-13T01:27:44;3.15;;;1.50;;
5961;SDS011;3007;50.770;0.250;2022-09-13T01:30:35;1.83;;;1.08;;
5961;SDS011;3007;50.770;0.250;2022-09-13T01:33:08;1.48;;;1.10;;
5961;SDS011;3007;50.770;0.250;2022-09-13T01:35:50;2.10;;;1.20;;
5961;SDS011;3007;50.770;0.250;2022-09-13T01:38:33;2.60;;;1.20;;
5961;SDS011;3007;50.770;0.250;2022-09-13T01:41:18;1.65;;;1.13;;
5961;SDS011;3007;50.770;0.250;2022-09-13T01:43:56;1.48;;;0.98;;
5961;SDS011;3007;50.770;0.250;2022-09-13T01:46:31;1.48;;;1.25;;
5961;SDS011;3007;50.770;0.250;2022-09-13T01:49:06;3.63;;;1.30;;
5961;SDS011;3007;50.770;0.250;2022-09-13T01:51:43;3.67;;;1.45;;
5961;SDS011;3007;50.770;0.250;2022-09-13T01:54:16;4.07;;;1.50;;
5961;SDS011;3007;50.770;0.250;2022-09-13T01:56:52;3.90;;;1.30;;
5961;SDS011;3007;50.770;0.250;2022-09-13T01:59:25;2.25;;;1.40;;
5961;SDS011;3007;50.770;0.250;2022-09-13T02:02:01;1.40;;;1.23;;
5961;SDS011;3007;50.770;0.250;2022-09-13T02:04:32;2.58;;;1.38;;
5961;SDS011;3007;50.770;0.250;2022-09-13T02:07:03;1.52;;;1.30;;
5961;SDS011;3007;50.770;0.250;2022-09-13T02:09:39;1.25;;;1.10;;
5961;SDS011;3007;50.770;0.250;2022-09-13T02:12:10;1.67;;;1.20;;
5961;SDS011;3007;50.770;0.250;2022-09-13T02:14:42;1.77;;;1.08;;
5961;SDS011;3007;50.770;0.250;2022-09-13T02:17:16;4.38;;;1.50;;
5961;SDS011;3007;50.770;0.250;2022-09-13T02:19:47;1.50;;;1.20;;
5961;SDS011;3007;50.770;0.250;2022-09-13T02:22:19;1.33;;;1.23;;
5961;SDS011;3007;50.770;0.250;2022-09-13T02:24:52;1.27;;;1.10;;
5961;SDS011;3007;50.770;0.250;2022-09-13T02:27:23;2.65;;;1.10;;
5961;SDS011;3007;50.770;0.250;2022-09-13T02:29:55;2.45;;;1.50;;
5961;SDS011;3007;50.770;0.250;2022-09-13T02:32:29;1.73;;;1.50;;
5961;SDS011;3007;50.770;0.250;2022-09-13T02:35:00;1.50;;;1.10;;
5961;SDS011;3007;50.770;0.250;2022-09-13T02:37:31;3.97;;;1.45;;
5961;SDS011;3007;50.770;0.250;2022-09-13T02:40:02;3.15;;;1.35;;
5961;SDS011;3007;50.770;0.250;2022-09-13T02:42:33;1.55;;;1.35;;
5961;SDS011;3007;50.770;0.250;2022-09-13T02:45:06;4.82;;;1.35;;
5961;SDS011;3007;50.770;0.250;2022-09-13T02:47:39;1.40;;;1.25;;
5961;SDS011;3007;50.770;0.250;2022-09-13T02:50:16;2.15;;;1.35;;
5961;SDS011;3007;50.770;0.250;2022-09-13T02:52:57;2.10;;;1.50;;
5961;SDS011;3007;50.770;0.250;2022-09-13T02:55:30;1.17;;;1.08;;
5961;SDS011;3007;50.770;0.250;2022-09-13T02:58:08;2.90;;;1.13;;
5961;SDS011;3007;50.770;0.250;2022-09-13T03:00:39;3.05;;;1.40;;
5961;SDS011;3007;50.770;0.250;2022-09-13T03:03:09;5.22;;;1.35;;
5961;SDS011;3007;50.770;0.250;2022-09-13T03:05:39;2.00;;;1.10;;
5961;SDS011;3007;50.770;0.250;2022-09-13T03:08:07;2.45;;;1.30;;
5961;SDS011;3007;50.770;0.250;2022-09-13T03:10:39;1.92;;;1.50;;
5961;SDS011;3007;50.770;0.250;2022-09-13T03:13:18;1.80;;;1.23;;
5961;SDS011;3007;50.770;0.250;2022-09-13T03:16:08;1.95;;;1.38;;
5961;SDS011;3007;50.770;0.250;2022-09-13T03:18:50;2.65;;;1.48;;
5961;SDS011;3007;50.770;0.250;2022-09-13T03:21:28;3.90;;;1.42;;
5961;SDS011;3007;50.770;0.250;2022-09-13T03:24:10;1.73;;;1.33;;
5961;SDS011;3007;50.770;0.250;2022-09-13T03:26:48;1.50;;;1.13;;
5961;SDS011;3007;50.770;0.250;2022-09-13T03:29:25;5.32;;;1.90;;
5961;SDS011;3007;50.770;0.250;2022-09-13T03:31:59;1.58;;;1.20;;
5961;SDS011;3007;50.770;0.250;2022-09-13T03:34:34;1.77;;;1.35;;
5961;SDS011;3007;50.770;0.250;2022-09-13T03:37:09;2.15;;;1.80;;
5961;SDS011;3007;50.770;0.250;2022-09-13T03:39:45;3.00;;;1.88;;
5961;SDS011;3007;50.770;0.250;2022-09-13T03:42:19;2.78;;;1.90;;
5961;SDS011;3007;50.770;0.250;2022-09-13T03:44:51;2.72;;;1.90;;
5961;SDS011;3007;50.770;0.250;2022-09-13T03:47:20;3.13;;;1.65;;
5961;SDS011;3007;50.770;0.250;2022-09-13T03:49:51;3.00;;;1.50;;
5961;SDS011;3007;50.770;0.250;2022-09-13T03:52:18;3.22;;;1.63;;
5961;SDS011;3007;50.770;0.250;2022-09-13T03:54:45;2.63;;;2.00;;
5961;SDS011;3007;50.770;0.250;2022-09-13T03:57:13;3.55;;;2.20;;
5961;SDS011;3007;50.770;0.250;2022-09-13T03:59:42;4.82;;;2.10;;
5961;SDS011;3007;50.770;0.250;2022-09-13T04:02:11;2.65;;;2.05;;
5961;SDS011;3007;50.770;0.250;2022-09-13T04:04:38;2.35;;;2.10;;
5961;SDS011;3007;50.770;0.250;2022-09-13T04:07:08;4.60;;;2.60;;
5961;SDS011;3007;50.770;0.250;2022-09-13T04:09:36;4.53;;;2.90;;
5961;SDS011;3007;50.770;0.250;2022-09-13T04:12:03;2.63;;;2.30;;
5961;SDS011;3007;50.770;0.250;2022-09-13T04:14:30;3.47;;;2.60;;
5961;SDS011;3007;50.770;0.250;2022-09-13T04:16:57;4.40;;;2.50;;
5961;SDS011;3007;50.770;0.250;2022-09-13T04:19:24;4.70;;;2.40;;
5961;SDS011;3007;50.770;0.250;2022-09-13T04:21:52;5.07;;;2.50;;
5961;SDS011;3007;50.770;0.250;2022-09-13T04:24:23;3.72;;;2.25;;
5961;SDS011;3007;50.770;0.250;2022-09-13T04:26:51;5.60;;;2.38;;
5961;SDS011;3007;50.770;0.250;2022-09-13T04:29:18;2.20;;;1.92;;
5961;SDS011;3007;50.770;0.250;2022-09-13T04:31:46;6.13;;;2.40;;
5961;SDS011;3007;50.770;0.250;2022-09-13T04:34:14;5.53;;;2.38;;
5961;SDS011;3007;50.770;0.250;2022-09-13T04:36:42;3.63;;;2.13;;
5961;SDS011;3007;50.770;0.250;2022-09-13T04:39:09;4.65;;;2.13;;
5961;SDS011;3007;50.770;0.250;2022-09-13T04:41:39;3.53;;;2.00;;
5961;SDS011;3007;50.770;0.250;2022-09-13T04:44:08;3.58;;;2.25;;
5961;SDS011;3007;50.770;0.250;2022-09-13T04:46:37;3.72;;;2.35;;
5961;SDS011;3007;50.770;0.250;2022-09-13T04:49:04;4.22;;;2.50;;
5961;SDS011;3007;50.770;0.250;2022-09-13T04:51:31;5.50;;;1.98;;
5961;SDS011;3007;50.770;0.250;2022-09-13T04:53:58;3.33;;;2.30;;
5961;SDS011;3007;50.770;0.250;2022-09-13T04:56:25;2.88;;;1.80;;
5961;SDS011;3007;50.770;0.250;2022-09-13T04:58:54;2.25;;;2.05;;
5961;SDS011;3007;50.770;0.250;2022-09-13T05:01:21;4.28;;;2.13;;
5961;SDS011;3007;50.770;0.250;2022-09-13T05:03:49;3.53;;;2.15;;
5961;SDS011;3007;50.770;0.250;2022-09-13T05:06:17;2.85;;;2.10;;
5961;SDS011;3007;50.770;0.250;2022-09-13T05:08:48;3.45;;;2.63;;
5961;SDS011;3007;50.770;0.250;2022-09-13T05:11:16;5.50;;;2.45;;
5961;SDS011;3007;50.770;0.250;2022-09-13T05:13:43;3.75;;;2.50;;
5961;SDS011;3007;50.770;0.250;2022-09-13T05:16:18;4.35;;;2.47;;
5961;SDS011;3007;50.770;0.250;2022-09-13T05:18:48;4.40;;;2.45;;
5961;SDS011;3007;50.770;0.250;2022-09-13T05:21:15;2.17;;;1.92;;
5961;SDS011;3007;50.770;0.250;2022-09-13T05:23:43;4.15;;;2.25;;
5961;SDS011;3007;50.770;0.250;2022-09-13T05:26:10;4.90;;;2.83;;
5961;SDS011;3007;50.770;0.250;2022-09-13T05:28:39;3.88;;;2.75;;
5961;SDS011;3007;50.770;0.250;2022-09-13T05:31:09;4.97;;;2.83;;
5961;SDS011;3007;50.770;0.250;2022-09-13T05:33:41;6.05;;;2.60;;
5961;SDS011;3007;50.770;0.250;2022-09-13T05:36:08;4.78;;;2.70;;
5961;SDS011;3007;50.770;0.250;2022-09-13T05:38:35;4.47;;;2.78;;
5961;SDS011;3007;50.770;0.250;2022-09-13T05:41:02;6.20;;;2.70;;
5961;SDS011;3007;50.770;0.250;2022-09-13T05:43:31;4.75;;;2.83;;
5961;SDS011;3007;50.770;0.250;2022-09-13T05:45:59;3.05;;;2.55;;
5961;SDS011;3007;50.770;0.250;2022-09-13T05:48:26;3.92;;;2.30;;
5961;SDS011;3007;50.770;0.250;2022-09-13T05:50:55;3.92;;;2.85;;
5961;SDS011;3007;50.770;0.250;2022-09-13T05:53:22;7.13;;;3.03;;
5961;SDS011;3007;50.770;0.250;2022-09-13T05:55:49;3.10;;;2.80;;
5961;SDS011;3007;50.770;0.250;2022-09-13T05:58:16;6.55;;;3.40;;
5961;SDS011;3007;50.770;0.250;2022-09-13T06:00:43;6.97;;;3.30;;
5961;SDS011;3007;50.770;0.250;2022-09-13T06:03:09;8.18;;;2.95;;
5961;SDS011;3007;50.770;0.250;2022-09-13T06:05:36;4.22;;;2.67;;
5961;SDS011;3007;50.770;0.250;2022-09-13T06:08:04;4.93;;;3.45;;
5961;SDS011;3007;50.770;0.250;2022-09-13T06:10:32;4.88;;;3.58;;
5961;SDS011;3007;50.770;0.250;2022-09-13T06:12:59;6.28;;;3.65;;
5961;SDS011;3007;50.770;0.250;2022-09-13T06:15:26;6.05;;;3.17;;
5961;SDS011;3007;50.770;0.250;2022-09-13T06:17:53;5.22;;;2.90;;
5961;SDS011;3007;50.770;0.250;2022-09-13T06:20:20;5.00;;;3.08;;
5961;SDS011;3007;50.770;0.250;2022-09-13T06:22:47;4.88;;;3.60;;
5961;SDS011;3007;50.770;0.250;2022-09-13T06:25:15;7.78;;;3.33;;
5961;SDS011;3007;50.770;0.250;2022-09-13T06:27:42;7.25;;;4.18;;
5961;SDS011;3007;50.770;0.250;2022-09-13T06:30:09;6.15;;;3.60;;
5961;SDS011;3007;50.770;0.250;2022-09-13T06:32:39;6.13;;;3.90;;
5961;SDS011;3007;50.770;0.250;2022-09-13T06:35:07;5.40;;;3.58;;
5961;SDS011;3007;50.770;0.250;2022-09-13T06:37:34;5.68;;;4.32;;
5961;SDS011;3007;50.770;0.250;2022-09-13T06:40:01;5.30;;;3.88;;
5961;SDS011;3007;50.770;0.250;2022-09-13T06:45:02;5.50;;;4.00;;
5961;SDS011;3007;50.770;0.250;2022-09-13T06:47:30;6.25;;;3.95;;
5961;SDS011;3007;50.770;0.250;2022-09-13T06:49:57;4.95;;;4.10;;
5961;SDS011;3007;50.770;0.250;2022-09-13T06:52:26;6.32;;;4.50;;
5961;SDS011;3007;50.770;0.250;2022-09-13T06:54:53;6.15;;;4.38;;
5961;SDS011;3007;50.770;0.250;2022-09-13T06:57:20;6.07;;;4.30;;
5961;SDS011;3007;50.770;0.250;2022-09-13T06:59:48;6.85;;;4.72;;
5961;SDS011;3007;50.770;0.250;2022-09-13T07:02:15;9.80;;;5.18;;
5961;SDS011;3007;50.770;0.250;2022-09-13T07:04:42;8.55;;;5.07;;
5961;SDS011;3007;50.770;0.250;2022-09-13T07:07:09;7.28;;;4.60;;
5961;SDS011;3007;50.770;0.250;2022-09-13T07:09:36;8.35;;;5.20;;
5961;SDS011;3007;50.770;0.250;2022-09-13T07:12:04;7.03;;;4.93;;
5961;SDS011;3007;50.770;0.250;2022-09-13T07:14:31;8.13;;;4.80;;
5961;SDS011;3007;50.770;0.250;2022-09-13T07:16:59;9.38;;;5.10;;
5961;SDS011;3007;50.770;0.250;2022-09-13T07:19:26;10.35;;;5.45;;
5961;SDS011;3007;50.770;0.250;2022-09-13T07:21:55;5.45;;;4.95;;
5961;SDS011;3007;50.770;0.250;2022-09-13T07:24:23;8.80;;;5.40;;
5961;SDS011;3007;50.770;0.250;2022-09-13T07:26:50;9.85;;;5.90;;
5961;SDS011;3007;50.770;0.250;2022-09-13T07:29:18;8.32;;;5.68;;
5961;SDS011;3007;50.770;0.250;2022-09-13T07:31:48;8.60;;;6.03;;
5961;SDS011;3007;50.770;0.250;2022-09-13T07:34:18;6.95;;;5.75;;
5961;SDS011;3007;50.770;0.250;2022-09-13T07:36:46;8.73;;;5.90;;
5961;SDS011;3007;50.770;0.250;2022-09-13T07:39:14;7.13;;;6.03;;
5961;SDS011;3007;50.770;0.250;2022-09-13T07:41:43;7.43;;;6.30;;
5961;SDS011;3007;50.770;0.250;2022-09-13T07:44:12;9.77;;;6.90;;
5961;SDS011;3007;50.770;0.250;2022-09-13T07:46:39;9.13;;;6.93;;
5961;SDS011;3007;50.770;0.250;2022-09-13T07:49:07;7.88;;;6.43;;
5961;SDS011;3007;50.770;0.250;2022-09-13T07:51:40;7.10;;;5.97;;
5961;SDS011;3007;50.770;0.250;2022-09-13T07:54:09;13.00;;;6.47;;
5961;SDS011;3007;50.770;0.250;2022-09-13T07:56:38;11.07;;;6.13;;
5961;SDS011;3007;50.770;0.250;2022-09-13T07:59:06;6.90;;;6.15;;
5961;SDS011;3007;50.770;0.250;2022-09-13T08:01:37;7.97;;;7.18;;
5961;SDS011;3007;50.770;0.250;2022-09-13T08:04:06;8.85;;;6.78;;
5961;SDS011;3007;50.770;0.250;2022-09-13T08:06:35;6.78;;;6.13;;
5961;SDS011;3007;50.770;0.250;2022-09-13T08:09:05;9.02;;;6.97;;
5961;SDS011;3007;50.770;0.250;2022-09-13T08:11:33;11.63;;;6.47;;
5961;SDS011;3007;50.770;0.250;2022-09-13T08:14:02;9.18;;;6.72;;
5961;SDS011;3007;50.770;0.250;2022-09-13T08:16:32;10.38;;;7.63;;
5961;SDS011;3007;50.770;0.250;2022-09-13T08:19:00;8.90;;;6.70;;
5961;SDS011;3007;50.770;0.250;2022-09-13T08:21:32;9.02;;;7.13;;
5961;SDS011;3007;50.770;0.250;2022-09-13T08:24:01;8.88;;;7.15;;
5961;SDS011;3007;50.770;0.250;2022-09-13T08:26:34;9.30;;;7.10;;
5961;SDS011;3007;50.770;0.250;2022-09-13T08:29:04;8.52;;;6.63;;
5961;SDS011;3007;50.770;0.250;2022-09-13T08:31:32;9.73;;;6.95;;
5961;SDS011;3007;50.770;0.250;2022-09-13T08:33:59;9.05;;;6.55;;
5961;SDS011;3007;50.770;0.250;2022-09-13T08:36:26;10.20;;;6.72;;
5961;SDS011;3007;50.770;0.250;2022-09-13T08:38:54;9.40;;;7.63;;
5961;SDS011;3007;50.770;0.250;2022-09-13T08:41:30;7.85;;;6.53;;
5961;SDS011;3007;50.770;0.250;2022-09-13T08:44:17;7.78;;;5.97;;
5961;SDS011;3007;50.770;0.250;2022-09-13T08:46:50;7.25;;;6.55;;
5961;SDS011;3007;50.770;0.250;2022-09-13T08:49:23;8.70;;;6.47;;
5961;SDS011;3007;50.770;0.250;2022-09-13T08:51:55;8.02;;;6.38;;
5961;SDS011;3007;50.770;0.250;2022-09-13T08:54:24;7.53;;;5.80;;
5961;SDS011;3007;50.770;0.250;2022-09-13T08:56:55;9.68;;;5.93;;
5961;SDS011;3007;50.770;0.250;2022-09-13T08:59:31;6.32;;;5.57;;
5961;SDS011;3007;50.770;0.250;2022-09-13T09:02:11;5.75;;;5.05;;
5961;SDS011;3007;50.770;0.250;2022-09-13T09:04:49;6.53;;;5.60;;
5961;SDS011;3007;50.770;0.250;2022-09-13T09:07:22;6.97;;;5.72;;
5961;SDS011;3007;50.770;0.250;2022-09-13T09:09:52;6.10;;;4.97;;
5961;SDS011;3007;50.770;0.250;2022-09-13T09:12:26;6.72;;;5.45;;
5961;SDS011;3007;50.770;0.250;2022-09-13T09:15:01;7.70;;;5.47;;
5961;SDS011;3007;50.770;0.250;2022-09-13T09:17:32;6.00;;;5.40;;
5961;SDS011;3007;50.770;0.250;2022-09-13T09:20:08;5.68;;;5.15;;
5961;SDS011;3007;50.770;0.250;2022-09-13T09:22:48;7.18;;;5.10;;
5961;SDS011;3007;50.770;0.250;2022-09-13T09:25:17;6.78;;;5.03;;
5961;SDS011;3007;50.770;0.250;2022-09-13T09:27:49;5.38;;;4.88;;
5961;SDS011;3007;50.770;0.250;2022-09-13T09:30:16;5.65;;;4.85;;
5961;SDS011;3007;50.770;0.250;2022-09-13T09:32:51;6.22;;;5.45;;
5961;SDS011;3007;50.770;0.250;2022-09-13T09:35:40;8.13;;;5.25;;
5961;SDS011;3007;50.770;0.250;2022-09-13T09:38:19;6.65;;;5.18;;
5961;SDS011;3007;50.770;0.250;2022-09-13T09:40:56;5.45;;;4.47;;
5961;SDS011;3007;50.770;0.250;2022-09-13T09:43:30;6.50;;;4.72;;
5961;SDS011;3007;50.770;0.250;2022-09-13T09:46:01;5.93;;;4.28;;
5961;SDS011;3007;50.770;0.250;2022-09-13T09:48:39;6.68;;;4.80;;
5961;SDS011;3007;50.770;0.250;2022-09-13T09:51:09;5.40;;;4.40;;
5961;SDS011;3007;50.770;0.250;2022-09-13T09:53:38;6.00;;;4.32;;
5961;SDS011;3007;50.770;0.250;2022-09-13T09:56:16;6.78;;;4.68;;
5961;SDS011;3007;50.770;0.250;2022-09-13T09:58:50;5.57;;;4.53;;
5961;SDS011;3007;50.770;0.250;2022-09-13T10:01:20;6.53;;;4.30;;
5961;SDS011;3007;50.770;0.250;2022-09-13T10:03:50;4.57;;;4.18;;
5961;SDS011;3007;50.770;0.250;2022-09-13T10:06:21;4.95;;;4.25;;
5961;SDS011;3007;50.770;0.250;2022-09-13T10:08:53;5.15;;;4.35;;
5961;SDS011;3007;50.770;0.250;2022-09-13T10:11:27;6.93;;;4.30;;
5961;SDS011;3007;50.770;0.250;2022-09-13T10:14:05;5.50;;;4.13;;
5961;SDS011;3007;50.770;0.250;2022-09-13T10:16:56;5.43;;;4.88;;
5961;SDS011;3007;50.770;0.250;2022-09-13T10:19:28;4.53;;;4.13;;
5961;SDS011;3007;50.770;0.250;2022-09-13T10:22:00;6.00;;;4.78;;
5961;SDS011;3007;50.770;0.250;2022-09-13T10:24:29;4.75;;;3.85;;
5961;SDS011;3007;50.770;0.250;2022-09-13T10:26:57;8.32;;;4.95;;
5961;SDS011;3007;50.770;0.250;2022-09-13T10:29:26;8.05;;;4.70;;
5961;SDS011;3007;50.770;0.250;2022-09-13T10:31:54;6.07;;;4.07;;
5961;SDS011;3007;50.770;0.250;2022-09-13T10:34:23;5.22;;;4.72;;
5961;SDS011;3007;50.770;0.250;2022-09-13T10:36:55;5.20;;;4.32;;
5961;SDS011;3007;50.770;0.250;2022-09-13T10:39:24;5.50;;;4.80;;
5961;SDS011;3007;50.770;0.250;2022-09-13T10:41:55;5.15;;;4.65;;
5961;SDS011;3007;50.770;0.250;2022-09-13T10:44:29;4.82;;;4.25;;
5961;SDS011;3007;50.770;0.250;2022-09-13T10:47:00;6.00;;;4.47;;
5961;SDS011;3007;50.770;0.250;2022-09-13T10:49:40;5.97;;;4.35;;
5961;SDS011;3007;50.770;0.250;2022-09-13T10:52:31;8.30;;;4.72;;
5961;SDS011;3007;50.770;0.250;2022-09-13T10:58:11;5.95;;;5.40;;
5961;SDS011;3007;50.770;0.250;2022-09-13T11:00:44;6.95;;;5.93;;
5961;SDS011;3007;50.770;0.250;2022-09-13T11:03:35;8.05;;;5.65;;
5961;SDS011;3007;50.770;0.250;2022-09-13T11:06:21;7.13;;;5.90;;
5961;SDS011;3007;50.770;0.250;2022-09-13T11:08:55;10.30;;;6.00;;
5961;SDS011;3007;50.770;0.250;2022-09-13T11:11:31;7.30;;;5.75;;
5961;SDS011;3007;50.770;0.250;2022-09-13T11:14:07;6.40;;;5.63;;
5961;SDS011;3007;50.770;0.250;2022-09-13T11:16:46;6.95;;;5.15;;
5961;SDS011;3007;50.770;0.250;2022-09-13T11:19:44;5.55;;;4.90;;
5961;SDS011;3007;50.770;0.250;2022-09-13T11:25:33;5.82;;;5.25;;
5961;SDS011;3007;50.770;0.250;2022-09-13T11:28:15;7.07;;;5.80;;
5961;SDS011;3007;50.770;0.250;2022-09-13T11:30:55;8.05;;;4.90;;
5961;SDS011;3007;50.770;0.250;2022-09-13T11:33:46;6.15;;;5.55;;
5961;SDS011;3007;50.770;0.250;2022-09-13T11:39:18;6.75;;;6.05;;
5961;SDS011;3007;50.770;0.250;2022-09-13T11:41:57;8.82;;;5.72;;
5961;SDS011;3007;50.770;0.250;2022-09-13T11:47:29;5.85;;;5.32;;
5961;SDS011;3007;50.770;0.250;2022-09-13T11:50:08;10.73;;;5.60;;
5961;SDS011;3007;50.770;0.250;2022-09-13T11:52:50;6.97;;;5.70;;
5961;SDS011;3007;50.770;0.250;2022-09-13T11:55:27;6.75;;;5.20;;
5961;SDS011;3007;50.770;0.250;2022-09-13T11:57:57;6.38;;;5.68;;
5961;SDS011;3007;50.770;0.250;2022-09-13T12:00:29;6.22;;;5.63;;
5961;SDS011;3007;50.770;0.250;2022-09-13T12:03:02;8.93;;;5.90;;
5961;SDS011;3007;50.770;0.250;2022-09-13T12:05:38;6.03;;;5.43;;
5961;SDS011;3007;50.770;0.250;2022-09-13T12:08:12;12.30;;;6.28;;
5961;SDS011;3007;50.770;0.250;2022-09-13T12:10:49;7.68;;;6.78;;
5961;SDS011;3007;50.770;0.250;2022-09-13T12:13:20;8.93;;;6.28;;
5961;SDS011;3007;50.770;0.250;2022-09-13T12:15:50;7.03;;;5.97;;
5961;SDS011;3007;50.770;0.250;2022-09-13T12:18:20;6.60;;;6.00;;
5961;SDS011;3007;50.770;0.250;2022-09-13T12:20:53;7.15;;;6.35;;
5961;SDS011;3007;50.770;0.250;2022-09-13T12:23:26;6.47;;;5.82;;
5961;SDS011;3007;50.770;0.250;2022-09-13T12:25:57;6.53;;;5.78;;
5961;SDS011;3007;50.770;0.250;2022-09-13T12:28:28;8.13;;;5.40;;
5961;SDS011;3007;50.770;0.250;2022-09-13T12:31:01;5.97;;;5.03;;
5961;SDS011;3007;50.770;0.250;2022-09-13T12:33:31;8.82;;;5.63;;
5961;SDS011;3007;50.770;0.250;2022-09-13T12:36:08;7.18;;;4.95;;
5961;SDS011;3007;50.770;0.250;2022-09-13T12:39:00;7.55;;;5.70;;
5961;SDS011;3007;50.770;0.250;2022-09-13T12:41:55;6.80;;;5.57;;
5961;SDS011;3007;50.770;0.250;2022-09-13T12:44:40;6.85;;;5.55;;
5961;SDS011;3007;50.770;0.250;2022-09-13T12:47:29;7.13;;;5.35;;
5961;SDS011;3007;50.770;0.250;2022-09-13T12:50:15;6.25;;;5.53;;
5961;SDS011;3007;50.770;0.250;2022-09-13T12:52:52;6.43;;;5.65;;
5961;SDS011;3007;50.770;0.250;2022-09-13T12:58:26;6.13;;;4.85;;
5961;SDS011;3007;50.770;0.250;2022-09-13T13:01:07;7.63;;;4.97;;
5961;SDS011;3007;50.770;0.250;2022-09-13T13:03:40;6.63;;;5.10;;
5961;SDS011;3007;50.770;0.250;2022-09-13T13:06:17;6.93;;;4.97;;
5961;SDS011;3007;50.770;0.250;2022-09-13T13:08:59;5.13;;;4.20;;
5961;SDS011;3007;50.770;0.250;2022-09-13T13:11:39;4.95;;;4.30;;
5961;SDS011;3007;50.770;0.250;2022-09-13T13:14:24;4.35;;;3.95;;
5961;SDS011;3007;50.770;0.250;2022-09-13T13:23:28;5.85;;;3.92;;
5961;SDS011;3007;50.770;0.250;2022-09-13T13:26:11;4.10;;;3.70;;
5961;SDS011;3007;50.770;0.250;2022-09-13T13:29:04;5.22;;;3.22;;
5961;SDS011;3007;50.770;0.250;2022-09-13T13:31:40;7.50;;;3.30;;
5961;SDS011;3007;50.770;0.250;2022-09-13T13:42:51;5.20;;;2.97;;
5961;SDS011;3007;50.770;0.250;2022-09-13T13:45:58;6.32;;;3.47;;
5961;SDS011;3007;50.770;0.250;2022-09-13T13:48:40;3.45;;;3.15;;
5961;SDS011;3007;50.770;0.250;2022-09-13T13:51:11;3.38;;;3.08;;
5961;SDS011;3007;50.770;0.250;2022-09-13T13:53:42;5.50;;;3.70;;
5961;SDS011;3007;50.770;0.250;2022-09-13T13:56:15;4.63;;;3.67;;
5961;SDS011;3007;50.770;0.250;2022-09-13T13:58:52;4.50;;;3.55;;
5961;SDS011;3007;50.770;0.250;2022-09-13T14:01:23;7.07;;;3.33;;
5961;SDS011;3007;50.770;0.250;2022-09-13T14:03:56;6.70;;;3.30;;
5961;SDS011;3007;50.770;0.250;2022-09-13T14:06:47;3.83;;;2.60;;
5961;SDS011;3007;50.770;0.250;2022-09-13T14:09:24;8.45;;;3.42;;
5961;SDS011;3007;50.770;0.250;2022-09-13T14:12:05;4.93;;;3.25;;
5961;SDS011;3007;50.770;0.250;2022-09-13T14:17:52;5.35;;;2.65;;
5961;SDS011;3007;50.770;0.250;2022-09-13T14:20:27;5.38;;;2.63;;
5961;SDS011;3007;50.770;0.250;2022-09-13T14:23:10;4.63;;;2.85;;
5961;SDS011;3007;50.770;0.250;2022-09-13T14:25:38;9.00;;;2.88;;
5961;SDS011;3007;50.770;0.250;2022-09-13T14:28:05;5.85;;;2.53;;
5961;SDS011;3007;50.770;0.250;2022-09-13T14:30:35;5.95;;;2.78;;
5961;SDS011;3007;50.770;0.250;2022-09-13T14:33:03;4.68;;;2.78;;
5961;SDS011;3007;50.770;0.250;2022-09-13T14:35:31;5.07;;;2.55;;
5961;SDS011;3007;50.770;0.250;2022-09-13T14:38:11;3.08;;;2.53;;
5961;SDS011;3007;50.770;0.250;2022-09-13T14:40:45;7.53;;;2.75;;
5961;SDS011;3007;50.770;0.250;2022-09-13T14:43:14;4.00;;;2.65;;
5961;SDS011;3007;50.770;0.250;2022-09-13T14:45:44;5.45;;;2.67;;
5961;SDS011;3007;50.770;0.250;2022-09-13T14:48:14;9.52;;;3.65;;
5961;SDS011;3007;50.770;0.250;2022-09-13T14:50:47;3.60;;;2.80;;
5961;SDS011;3007;50.770;0.250;2022-09-13T14:53:18;4.35;;;2.83;;
5961;SDS011;3007;50.770;0.250;2022-09-13T14:55:48;3.60;;;2.80;;
5961;SDS011;3007;50.770;0.250;2022-09-13T14:58:18;5.18;;;2.50;;
5961;SDS011;3007;50.770;0.250;2022-09-13T15:00:50;6.50;;;3.08;;
5961;SDS011;3007;50.770;0.250;2022-09-13T15:03:20;3.83;;;2.33;;
5961;SDS011;3007;50.770;0.250;2022-09-13T15:05:51;4.30;;;2.72;;
5961;SDS011;3007;50.770;0.250;2022-09-13T15:08:26;3.83;;;2.35;;
5961;SDS011;3007;50.770;0.250;2022-09-13T15:11:14;6.85;;;3.17;;
5961;SDS011;3007;50.770;0.250;2022-09-13T15:13:59;5.82;;;3.10;;
5961;SDS011;3007;50.770;0.250;2022-09-13T15:16:46;7.45;;;2.97;;
5961;SDS011;3007;50.770;0.250;2022-09-13T15:19:15;6.03;;;3.45;;
5961;SDS011;3007;50.770;0.250;2022-09-13T15:21:53;3.33;;;2.55;;
5961;SDS011;3007;50.770;0.250;2022-09-13T15:24:29;3.92;;;2.40;;
5961;SDS011;3007;50.770;0.250;2022-09-13T15:27:02;3.45;;;2.67;;
5961;SDS011;3007;50.770;0.250;2022-09-13T15:29:30;4.95;;;2.88;;
5961;SDS011;3007;50.770;0.250;2022-09-13T15:32:00;6.32;;;2.85;;
5961;SDS011;3007;50.770;0.250;2022-09-13T15:34:27;4.57;;;2.92;;
5961;SDS011;3007;50.770;0.250;2022-09-13T15:37:01;5.20;;;2.78;;
5961;SDS011;3007;50.770;0.250;2022-09-13T15:39:41;4.40;;;2.58;;
5961;SDS011;3007;50.770;0.250;2022-09-13T15:42:09;7.45;;;3.05;;
5961;SDS011;3007;50.770;0.250;2022-09-13T15:44:36;5.50;;;2.97;;
5961;SDS011;3007;50.770;0.250;2022-09-13T15:47:13;4.88;;;2.83;;
5961;SDS011;3007;50.770;0.250;2022-09-13T15:49:46;6.05;;;3.05;;
5961;SDS011;3007;50.770;0.250;2022-09-13T15:52:15;5.93;;;3.10;;
5961;SDS011;3007;50.770;0.250;2022-09-13T15:54:48;7.93;;;3.13;;
5961;SDS011;3007;50.770;0.250;2022-09-13T15:57:22;5.38;;;3.20;;
5961;SDS011;3007;50.770;0.250;2022-09-13T15:59:51;4.15;;;2.72;;
5961;SDS011;3007;50.770;0.250;2022-09-13T16:02:22;5.72;;;2.70;;
5961;SDS011;3007;50.770;0.250;2022-09-13T16:04:50;5.40;;;2.47;;
5961;SDS011;3007;50.770;0.250;2022-09-13T16:07:18;5.10;;;2.33;;
5961;SDS011;3007;50.770;0.250;2022-09-13T16:09:47;4.53;;;2.40;;
5961;SDS011;3007;50.770;0.250;2022-09-13T16:12:15;5.28;;;2.40;;
5961;SDS011;3007;50.770;0.250;2022-09-13T16:14:55;6.05;;;2.13;;
5961;SDS011;3007;50.770;0.250;2022-09-13T16:17:32;2.85;;;2.05;;
5961;SDS011;3007;50.770;0.250;2022-09-13T16:19:59;5.85;;;2.25;;
5961;SDS011;3007;50.770;0.250;2022-09-13T16:22:27;6.30;;;2.72;;
5961;SDS011;3007;50.770;0.250;2022-09-13T16:24:56;4.28;;;2.22;;